Hauptseite
METAR-TAF:

METAR-TAF

Flughäfen :

London Biggin Hill Airport

London Biggin Hill, England

Breite: 51-19N, Länge: 000-02E, Höhe: 183 m

Beobachtung

Neuester Wetterbericht von vor 11 Minuten, um 06:50 UTC
Windstille
Temperatur 11°C
Luftfeuchtigkeit 71%
Luftdruck 1023 hPa
Sichtweite: 9000 m

METAR: EGKB 210650Z 00000KT 9000 NSC 11/06 Q1023

Zeit: 08:01 (07:01 UTC)

Prognose

Neuester Wetterbericht von vor 14 Stunden und 4 Minuten, um 16:57 UTC
Gültige Prognose vom 20 um 18 UTC bis 20 um 22 UTC
Wind 6 kt aus Ost/Nordost
Sichtweite 10 km oder mehr
keine Wolken unter 1500 m und keine Kumulonimbus oder Gewitterwolken

TAF: EGKB 201657Z 2018/2022 07006KT CAVOK

Wetterbeobachtungen und Prognosen von mehr als 4000 Flughäfen (METAR und TAF Bericht).

Die verfügbaren Stationen werden durch gelbe und rote Markierungen auf der Karte dargestellt.

Führen Sie die Maus auf sie, um den Namen der Station zu sehen.

Darauf klicken, um die Beobachtung von Wetterbeobachtungen und Prognosen zu sehen.

Um die Karte zu ändern : klicken Sie auf den grünen Tasten mit einem schwarzen Kreuz Zum Vergrößern, auf den grünen Button mit einem Gedankenstrich zu verkleinern, oder auf die grünen Pfeile für benachbarte Karten.


METAR-TAF: